sensor_id;sensor_type;location;lat;lon;timestamp;P1;durP1;ratioP1;P2;durP2;ratioP2
10041;SDS011;5061;49.068;12.058;2024-03-29T00:02:21;2.57;;;1.63;;
10041;SDS011;5061;49.068;12.058;2024-03-29T00:05:50;1.63;;;1.53;;
10041;SDS011;5061;49.068;12.058;2024-03-29T00:09:14;2.43;;;1.70;;
10041;SDS011;5061;49.068;12.058;2024-03-29T00:12:35;1.47;;;1.13;;
10041;SDS011;5061;49.068;12.058;2024-03-29T00:16:03;1.37;;;1.27;;
10041;SDS011;5061;49.068;12.058;2024-03-29T00:19:24;1.77;;;1.63;;
10041;SDS011;5061;49.068;12.058;2024-03-29T00:22:48;2.80;;;1.60;;
10041;SDS011;5061;49.068;12.058;2024-03-29T00:26:09;2.73;;;1.37;;
10041;SDS011;5061;49.068;12.058;2024-03-29T00:29:31;3.33;;;1.57;;
10041;SDS011;5061;49.068;12.058;2024-03-29T00:32:55;1.50;;;1.40;;
10041;SDS011;5061;49.068;12.058;2024-03-29T00:36:16;1.53;;;1.10;;
10041;SDS011;5061;49.068;12.058;2024-03-29T00:39:38;1.73;;;1.57;;
10041;SDS011;5061;49.068;12.058;2024-03-29T00:43:15;2.87;;;1.40;;
10041;SDS011;5061;49.068;12.058;2024-03-29T00:46:38;1.57;;;1.43;;
10041;SDS011;5061;49.068;12.058;2024-03-29T00:50:00;1.97;;;1.30;;
10041;SDS011;5061;49.068;12.058;2024-03-29T00:53:22;2.50;;;1.90;;
10041;SDS011;5061;49.068;12.058;2024-03-29T00:56:46;2.70;;;1.40;;
10041;SDS011;5061;49.068;12.058;2024-03-29T01:00:07;2.70;;;1.53;;
10041;SDS011;5061;49.068;12.058;2024-03-29T01:03:30;1.40;;;1.30;;
10041;SDS011;5061;49.068;12.058;2024-03-29T01:06:53;1.90;;;1.70;;
10041;SDS011;5061;49.068;12.058;2024-03-29T01:10:15;3.00;;;1.40;;
10041;SDS011;5061;49.068;12.058;2024-03-29T01:14:00;3.80;;;1.90;;
10041;SDS011;5061;49.068;12.058;2024-03-29T01:17:22;1.67;;;1.57;;
10041;SDS011;5061;49.068;12.058;2024-03-29T01:20:44;3.53;;;1.57;;
10041;SDS011;5061;49.068;12.058;2024-03-29T01:24:11;2.53;;;1.60;;
10041;SDS011;5061;49.068;12.058;2024-03-29T01:27:33;3.07;;;1.90;;
10041;SDS011;5061;49.068;12.058;2024-03-29T01:30:54;3.20;;;1.40;;
10041;SDS011;5061;49.068;12.058;2024-03-29T01:34:15;2.80;;;1.77;;
10041;SDS011;5061;49.068;12.058;2024-03-29T01:37:37;2.00;;;1.40;;
10041;SDS011;5061;49.068;12.058;2024-03-29T01:41:00;2.20;;;1.77;;
10041;SDS011;5061;49.068;12.058;2024-03-29T01:44:23;3.00;;;1.83;;
10041;SDS011;5061;49.068;12.058;2024-03-29T01:47:46;3.00;;;1.43;;
10041;SDS011;5061;49.068;12.058;2024-03-29T01:51:10;1.50;;;1.40;;
10041;SDS011;5061;49.068;12.058;2024-03-29T01:54:36;1.97;;;1.27;;
10041;SDS011;5061;49.068;12.058;2024-03-29T01:58:16;1.60;;;1.37;;
10041;SDS011;5061;49.068;12.058;2024-03-29T02:01:42;5.00;;;1.60;;
10041;SDS011;5061;49.068;12.058;2024-03-29T02:05:05;1.47;;;1.37;;
10041;SDS011;5061;49.068;12.058;2024-03-29T02:08:27;2.77;;;1.60;;
10041;SDS011;5061;49.068;12.058;2024-03-29T02:11:48;1.67;;;1.50;;
10041;SDS011;5061;49.068;12.058;2024-03-29T02:15:14;2.00;;;1.37;;
10041;SDS011;5061;49.068;12.058;2024-03-29T02:18:40;1.90;;;1.43;;
10041;SDS011;5061;49.068;12.058;2024-03-29T02:22:04;1.93;;;1.50;;
10041;SDS011;5061;49.068;12.058;2024-03-29T02:25:27;1.40;;;1.10;;
10041;SDS011;5061;49.068;12.058;2024-03-29T02:28:52;2.03;;;1.30;;
10041;SDS011;5061;49.068;12.058;2024-03-29T02:32:13;1.80;;;1.30;;
10041;SDS011;5061;49.068;12.058;2024-03-29T02:35:33;1.50;;;1.30;;
10041;SDS011;5061;49.068;12.058;2024-03-29T02:38:56;1.80;;;1.00;;
10041;SDS011;5061;49.068;12.058;2024-03-29T02:42:18;2.27;;;1.50;;
10041;SDS011;5061;49.068;12.058;2024-03-29T02:45:39;4.20;;;1.10;;
10041;SDS011;5061;49.068;12.058;2024-03-29T02:49:04;2.20;;;1.30;;
10041;SDS011;5061;49.068;12.058;2024-03-29T02:52:25;1.50;;;1.20;;
10041;SDS011;5061;49.068;12.058;2024-03-29T02:55:52;6.70;;;1.17;;
10041;SDS011;5061;49.068;12.058;2024-03-29T02:59:12;1.20;;;1.10;;
10041;SDS011;5061;49.068;12.058;2024-03-29T03:02:37;1.00;;;0.90;;
10041;SDS011;5061;49.068;12.058;2024-03-29T03:06:17;1.10;;;1.00;;
10041;SDS011;5061;49.068;12.058;2024-03-29T03:09:38;1.20;;;1.00;;
10041;SDS011;5061;49.068;12.058;2024-03-29T03:13:17;2.60;;;1.40;;
10041;SDS011;5061;49.068;12.058;2024-03-29T03:16:38;1.40;;;1.00;;
10041;SDS011;5061;49.068;12.058;2024-03-29T03:19:59;1.50;;;1.20;;
10041;SDS011;5061;49.068;12.058;2024-03-29T03:23:21;3.53;;;1.30;;
10041;SDS011;5061;49.068;12.058;2024-03-29T03:26:43;1.37;;;0.90;;
10041;SDS011;5061;49.068;12.058;2024-03-29T03:30:04;1.60;;;1.30;;
10041;SDS011;5061;49.068;12.058;2024-03-29T03:33:25;3.47;;;1.10;;
10041;SDS011;5061;49.068;12.058;2024-03-29T03:36:46;1.23;;;0.93;;
10041;SDS011;5061;49.068;12.058;2024-03-29T03:40:07;5.13;;;1.23;;
10041;SDS011;5061;49.068;12.058;2024-03-29T03:43:30;1.43;;;0.90;;
10041;SDS011;5061;49.068;12.058;2024-03-29T03:46:51;1.30;;;1.20;;
10041;SDS011;5061;49.068;12.058;2024-03-29T03:50:12;1.20;;;1.10;;
10041;SDS011;5061;49.068;12.058;2024-03-29T03:53:33;1.20;;;1.10;;
10041;SDS011;5061;49.068;12.058;2024-03-29T03:56:54;3.37;;;1.10;;
10041;SDS011;5061;49.068;12.058;2024-03-29T04:00:15;1.73;;;1.20;;
10041;SDS011;5061;49.068;12.058;2024-03-29T04:03:36;1.77;;;1.00;;
10041;SDS011;5061;49.068;12.058;2024-03-29T04:06:56;1.10;;;1.00;;
10041;SDS011;5061;49.068;12.058;2024-03-29T04:10:17;1.53;;;1.07;;
10041;SDS011;5061;49.068;12.058;2024-03-29T04:13:39;2.87;;;1.17;;
10041;SDS011;5061;49.068;12.058;2024-03-29T04:17:00;1.10;;;1.00;;
10041;SDS011;5061;49.068;12.058;2024-03-29T04:20:21;1.40;;;1.20;;
10041;SDS011;5061;49.068;12.058;2024-03-29T04:23:41;2.63;;;1.40;;
10041;SDS011;5061;49.068;12.058;2024-03-29T04:27:02;1.27;;;1.10;;
10041;SDS011;5061;49.068;12.058;2024-03-29T04:30:24;2.27;;;1.50;;
10041;SDS011;5061;49.068;12.058;2024-03-29T04:33:45;1.30;;;1.10;;
10041;SDS011;5061;49.068;12.058;2024-03-29T04:37:07;1.20;;;0.80;;
10041;SDS011;5061;49.068;12.058;2024-03-29T04:40:28;1.50;;;1.40;;
10041;SDS011;5061;49.068;12.058;2024-03-29T04:43:50;1.63;;;1.53;;
10041;SDS011;5061;49.068;12.058;2024-03-29T04:47:12;1.73;;;1.10;;
10041;SDS011;5061;49.068;12.058;2024-03-29T04:50:34;1.63;;;1.30;;
10041;SDS011;5061;49.068;12.058;2024-03-29T04:53:56;1.70;;;1.50;;
10041;SDS011;5061;49.068;12.058;2024-03-29T04:57:17;1.43;;;1.27;;
10041;SDS011;5061;49.068;12.058;2024-03-29T05:00:38;1.20;;;1.10;;
10041;SDS011;5061;49.068;12.058;2024-03-29T05:03:59;9.60;;;1.60;;
10041;SDS011;5061;49.068;12.058;2024-03-29T05:07:20;1.67;;;1.53;;
10041;SDS011;5061;49.068;12.058;2024-03-29T05:10:41;1.73;;;1.50;;
10041;SDS011;5061;49.068;12.058;2024-03-29T05:14:03;2.53;;;1.80;;
10041;SDS011;5061;49.068;12.058;2024-03-29T05:17:24;1.37;;;1.27;;
10041;SDS011;5061;49.068;12.058;2024-03-29T05:20:46;2.37;;;1.37;;
10041;SDS011;5061;49.068;12.058;2024-03-29T05:24:10;1.30;;;1.17;;
10041;SDS011;5061;49.068;12.058;2024-03-29T05:27:30;1.47;;;1.37;;
10041;SDS011;5061;49.068;12.058;2024-03-29T05:30:51;1.37;;;1.27;;
10041;SDS011;5061;49.068;12.058;2024-03-29T05:34:14;1.30;;;1.20;;
10041;SDS011;5061;49.068;12.058;2024-03-29T05:37:35;4.30;;;1.63;;
10041;SDS011;5061;49.068;12.058;2024-03-29T05:40:56;2.03;;;1.33;;
10041;SDS011;5061;49.068;12.058;2024-03-29T05:44:18;2.43;;;1.57;;
10041;SDS011;5061;49.068;12.058;2024-03-29T05:47:39;1.40;;;1.30;;
10041;SDS011;5061;49.068;12.058;2024-03-29T05:51:01;3.77;;;1.40;;
10041;SDS011;5061;49.068;12.058;2024-03-29T05:54:21;1.60;;;1.50;;
10041;SDS011;5061;49.068;12.058;2024-03-29T05:57:42;1.80;;;1.70;;
10041;SDS011;5061;49.068;12.058;2024-03-29T06:01:04;1.63;;;1.50;;
10041;SDS011;5061;49.068;12.058;2024-03-29T06:04:26;2.00;;;1.53;;
10041;SDS011;5061;49.068;12.058;2024-03-29T06:07:57;3.03;;;2.00;;
10041;SDS011;5061;49.068;12.058;2024-03-29T06:11:18;2.57;;;1.70;;
10041;SDS011;5061;49.068;12.058;2024-03-29T06:14:39;6.27;;;1.70;;
10041;SDS011;5061;49.068;12.058;2024-03-29T06:18:18;2.23;;;2.00;;
10041;SDS011;5061;49.068;12.058;2024-03-29T06:21:39;2.87;;;1.83;;
10041;SDS011;5061;49.068;12.058;2024-03-29T06:25:00;2.03;;;1.50;;
10041;SDS011;5061;49.068;12.058;2024-03-29T06:28:24;3.53;;;1.70;;
10041;SDS011;5061;49.068;12.058;2024-03-29T06:31:45;2.13;;;1.93;;
10041;SDS011;5061;49.068;12.058;2024-03-29T06:35:08;1.90;;;1.50;;
10041;SDS011;5061;49.068;12.058;2024-03-29T06:38:30;1.70;;;1.60;;
10041;SDS011;5061;49.068;12.058;2024-03-29T06:41:52;1.93;;;1.73;;
10041;SDS011;5061;49.068;12.058;2024-03-29T06:45:13;2.63;;;1.70;;
10041;SDS011;5061;49.068;12.058;2024-03-29T06:48:54;2.60;;;1.70;;
10041;SDS011;5061;49.068;12.058;2024-03-29T06:52:39;2.63;;;1.80;;
10041;SDS011;5061;49.068;12.058;2024-03-29T06:56:06;3.33;;;1.97;;
10041;SDS011;5061;49.068;12.058;2024-03-29T07:00:09;2.20;;;1.87;;
10041;SDS011;5061;49.068;12.058;2024-03-29T07:04:13;1.60;;;1.50;;
10041;SDS011;5061;49.068;12.058;2024-03-29T07:07:55;2.00;;;1.73;;
10041;SDS011;5061;49.068;12.058;2024-03-29T07:11:31;2.53;;;1.83;;
10041;SDS011;5061;49.068;12.058;2024-03-29T07:15:23;2.23;;;2.00;;
10041;SDS011;5061;49.068;12.058;2024-03-29T07:19:24;2.30;;;1.70;;
10041;SDS011;5061;49.068;12.058;2024-03-29T07:23:47;3.57;;;1.97;;
10041;SDS011;5061;49.068;12.058;2024-03-29T07:28:07;2.90;;;2.23;;
10041;SDS011;5061;49.068;12.058;2024-03-29T07:32:30;2.90;;;2.03;;
10041;SDS011;5061;49.068;12.058;2024-03-29T07:36:57;3.47;;;1.97;;
10041;SDS011;5061;49.068;12.058;2024-03-29T07:41:20;2.30;;;1.90;;
10041;SDS011;5061;49.068;12.058;2024-03-29T07:45:35;2.77;;;2.10;;
10041;SDS011;5061;49.068;12.058;2024-03-29T07:49:19;3.03;;;2.00;;
10041;SDS011;5061;49.068;12.058;2024-03-29T07:52:51;8.20;;;2.57;;
10041;SDS011;5061;49.068;12.058;2024-03-29T07:56:18;5.47;;;2.50;;
10041;SDS011;5061;49.068;12.058;2024-03-29T07:59:42;2.50;;;1.97;;
10041;SDS011;5061;49.068;12.058;2024-03-29T08:03:45;2.50;;;1.73;;
10041;SDS011;5061;49.068;12.058;2024-03-29T08:07:45;2.70;;;2.00;;
10041;SDS011;5061;49.068;12.058;2024-03-29T08:11:46;3.10;;;1.73;;
10041;SDS011;5061;49.068;12.058;2024-03-29T08:15:31;2.60;;;2.17;;
10041;SDS011;5061;49.068;12.058;2024-03-29T08:18:57;2.00;;;1.80;;
10041;SDS011;5061;49.068;12.058;2024-03-29T08:22:41;2.07;;;1.67;;
10041;SDS011;5061;49.068;12.058;2024-03-29T10:01:24;1.80;;;1.50;;
10041;SDS011;5061;49.068;12.058;2024-03-29T10:04:48;2.20;;;1.50;;
10041;SDS011;5061;49.068;12.058;2024-03-29T10:08:13;1.80;;;1.53;;
10041;SDS011;5061;49.068;12.058;2024-03-29T10:11:39;1.97;;;1.50;;
10041;SDS011;5061;49.068;12.058;2024-03-29T10:15:05;1.90;;;1.20;;
10041;SDS011;5061;49.068;12.058;2024-03-29T10:18:31;1.40;;;1.20;;
10041;SDS011;5061;49.068;12.058;2024-03-29T10:21:52;1.67;;;1.33;;
10041;SDS011;5061;49.068;12.058;2024-03-29T10:25:13;1.97;;;1.50;;
10041;SDS011;5061;49.068;12.058;2024-03-29T10:28:34;1.70;;;1.60;;
10041;SDS011;5061;49.068;12.058;2024-03-29T10:31:56;2.60;;;1.30;;
10041;SDS011;5061;49.068;12.058;2024-03-29T10:35:17;3.40;;;1.50;;
10041;SDS011;5061;49.068;12.058;2024-03-29T10:38:38;2.37;;;1.73;;
10041;SDS011;5061;49.068;12.058;2024-03-29T10:41:58;1.83;;;1.40;;
10041;SDS011;5061;49.068;12.058;2024-03-29T10:45:20;2.77;;;1.60;;
10041;SDS011;5061;49.068;12.058;2024-03-29T10:48:45;1.50;;;1.27;;
10041;SDS011;5061;49.068;12.058;2024-03-29T10:52:09;2.00;;;1.43;;
10041;SDS011;5061;49.068;12.058;2024-03-29T10:55:33;2.13;;;1.50;;
10041;SDS011;5061;49.068;12.058;2024-03-29T10:58:56;1.43;;;1.17;;
10041;SDS011;5061;49.068;12.058;2024-03-29T11:02:34;1.00;;;0.90;;
10041;SDS011;5061;49.068;12.058;2024-03-29T11:06:06;2.07;;;1.20;;
10041;SDS011;5061;49.068;12.058;2024-03-29T11:09:28;2.50;;;1.40;;
10041;SDS011;5061;49.068;12.058;2024-03-29T11:13:11;3.23;;;1.20;;
10041;SDS011;5061;49.068;12.058;2024-03-29T11:16:39;1.30;;;1.17;;
10041;SDS011;5061;49.068;12.058;2024-03-29T11:20:05;2.13;;;1.27;;
10041;SDS011;5061;49.068;12.058;2024-03-29T11:23:27;1.27;;;1.00;;
10041;SDS011;5061;49.068;12.058;2024-03-29T11:26:47;1.40;;;1.20;;
10041;SDS011;5061;49.068;12.058;2024-03-29T11:30:09;1.20;;;1.03;;
10041;SDS011;5061;49.068;12.058;2024-03-29T11:36:53;1.20;;;0.97;;
10041;SDS011;5061;49.068;12.058;2024-03-29T11:41:10;1.30;;;1.10;;
10041;SDS011;5061;49.068;12.058;2024-03-29T11:44:38;1.03;;;0.93;;
10041;SDS011;5061;49.068;12.058;2024-03-29T11:47:58;1.27;;;0.90;;
10041;SDS011;5061;49.068;12.058;2024-03-29T11:51:24;1.13;;;1.00;;
10041;SDS011;5061;49.068;12.058;2024-03-29T11:54:46;1.40;;;1.10;;
10041;SDS011;5061;49.068;12.058;2024-03-29T11:58:07;1.63;;;1.10;;
10041;SDS011;5061;49.068;12.058;2024-03-29T12:01:27;1.50;;;1.40;;
10041;SDS011;5061;49.068;12.058;2024-03-29T12:04:49;1.47;;;1.00;;
10041;SDS011;5061;49.068;12.058;2024-03-29T12:08:10;1.20;;;1.00;;
10041;SDS011;5061;49.068;12.058;2024-03-29T12:11:34;1.03;;;0.90;;
10041;SDS011;5061;49.068;12.058;2024-03-29T12:14:55;1.20;;;1.10;;
10041;SDS011;5061;49.068;12.058;2024-03-29T12:18:16;3.27;;;1.30;;
10041;SDS011;5061;49.068;12.058;2024-03-29T12:21:40;1.40;;;1.00;;
10041;SDS011;5061;49.068;12.058;2024-03-29T12:25:01;1.53;;;1.40;;
10041;SDS011;5061;49.068;12.058;2024-03-29T12:28:22;1.10;;;1.00;;
10041;SDS011;5061;49.068;12.058;2024-03-29T12:31:44;1.10;;;0.90;;
10041;SDS011;5061;49.068;12.058;2024-03-29T12:35:16;2.70;;;1.20;;
10041;SDS011;5061;49.068;12.058;2024-03-29T12:38:37;1.10;;;0.90;;
10041;SDS011;5061;49.068;12.058;2024-03-29T12:41:57;1.50;;;1.07;;
10041;SDS011;5061;49.068;12.058;2024-03-29T12:45:20;1.97;;;1.10;;
10041;SDS011;5061;49.068;12.058;2024-03-29T12:48:42;1.97;;;1.00;;
10041;SDS011;5061;49.068;12.058;2024-03-29T12:52:04;4.40;;;1.30;;
10041;SDS011;5061;49.068;12.058;2024-03-29T12:55:26;1.77;;;1.00;;
10041;SDS011;5061;49.068;12.058;2024-03-29T12:58:51;1.97;;;1.10;;
10041;SDS011;5061;49.068;12.058;2024-03-29T13:02:12;2.40;;;1.13;;
10041;SDS011;5061;49.068;12.058;2024-03-29T13:05:34;1.27;;;0.97;;
10041;SDS011;5061;49.068;12.058;2024-03-29T13:08:59;1.30;;;1.20;;
10041;SDS011;5061;49.068;12.058;2024-03-29T13:12:20;1.73;;;1.07;;
10041;SDS011;5061;49.068;12.058;2024-03-29T13:15:41;2.23;;;1.30;;
10041;SDS011;5061;49.068;12.058;2024-03-29T13:19:02;1.23;;;1.00;;
10041;SDS011;5061;49.068;12.058;2024-03-29T13:22:23;3.07;;;1.30;;
10041;SDS011;5061;49.068;12.058;2024-03-29T13:25:44;1.63;;;1.40;;
10041;SDS011;5061;49.068;12.058;2024-03-29T13:29:05;1.17;;;1.00;;
10041;SDS011;5061;49.068;12.058;2024-03-29T13:32:26;1.17;;;1.00;;
10041;SDS011;5061;49.068;12.058;2024-03-29T13:35:47;1.00;;;0.90;;
10041;SDS011;5061;49.068;12.058;2024-03-29T13:39:15;1.47;;;1.03;;
10041;SDS011;5061;49.068;12.058;2024-03-29T13:42:36;1.57;;;1.33;;
10041;SDS011;5061;49.068;12.058;2024-03-29T13:45:57;1.20;;;1.10;;
10041;SDS011;5061;49.068;12.058;2024-03-29T13:49:19;1.97;;;1.17;;
10041;SDS011;5061;49.068;12.058;2024-03-29T13:52:40;1.20;;;1.10;;
10041;SDS011;5061;49.068;12.058;2024-03-29T13:56:01;1.67;;;1.10;;
10041;SDS011;5061;49.068;12.058;2024-03-29T13:59:23;1.40;;;1.20;;
10041;SDS011;5061;49.068;12.058;2024-03-29T14:02:44;1.37;;;0.97;;
10041;SDS011;5061;49.068;12.058;2024-03-29T14:06:04;3.20;;;1.20;;
10041;SDS011;5061;49.068;12.058;2024-03-29T14:09:25;1.33;;;1.13;;
10041;SDS011;5061;49.068;12.058;2024-03-29T14:12:46;1.67;;;1.20;;
10041;SDS011;5061;49.068;12.058;2024-03-29T14:16:08;1.33;;;1.10;;
10041;SDS011;5061;49.068;12.058;2024-03-29T14:19:28;1.40;;;1.13;;
10041;SDS011;5061;49.068;12.058;2024-03-29T14:22:49;1.83;;;1.10;;
10041;SDS011;5061;49.068;12.058;2024-03-29T14:26:14;1.07;;;0.93;;
10041;SDS011;5061;49.068;12.058;2024-03-29T14:29:34;2.07;;;0.90;;
10041;SDS011;5061;49.068;12.058;2024-03-29T14:32:56;0.90;;;0.80;;
10041;SDS011;5061;49.068;12.058;2024-03-29T14:36:16;2.80;;;1.30;;
10041;SDS011;5061;49.068;12.058;2024-03-29T14:39:37;2.40;;;1.43;;
10041;SDS011;5061;49.068;12.058;2024-03-29T14:42:58;1.30;;;1.20;;
10041;SDS011;5061;49.068;12.058;2024-03-29T14:46:18;1.93;;;1.10;;
10041;SDS011;5061;49.068;12.058;2024-03-29T14:49:41;1.17;;;0.90;;
10041;SDS011;5061;49.068;12.058;2024-03-29T14:53:02;1.83;;;0.97;;
10041;SDS011;5061;49.068;12.058;2024-03-29T14:56:22;1.00;;;0.90;;
10041;SDS011;5061;49.068;12.058;2024-03-29T14:59:43;1.20;;;0.83;;
10041;SDS011;5061;49.068;12.058;2024-03-29T15:03:03;0.93;;;0.77;;
10041;SDS011;5061;49.068;12.058;2024-03-29T15:06:24;1.97;;;1.00;;
10041;SDS011;5061;49.068;12.058;2024-03-29T15:09:48;0.70;;;0.70;;
10041;SDS011;5061;49.068;12.058;2024-03-29T15:13:10;1.80;;;0.90;;
10041;SDS011;5061;49.068;12.058;2024-03-29T15:16:31;0.77;;;0.70;;
10041;SDS011;5061;49.068;12.058;2024-03-29T15:19:51;1.20;;;0.77;;
10041;SDS011;5061;49.068;12.058;2024-03-29T15:23:12;1.00;;;0.83;;
10041;SDS011;5061;49.068;12.058;2024-03-29T15:26:33;1.27;;;1.00;;
10041;SDS011;5061;49.068;12.058;2024-03-29T15:29:55;0.80;;;0.70;;
10041;SDS011;5061;49.068;12.058;2024-03-29T15:33:15;1.03;;;0.93;;
10041;SDS011;5061;49.068;12.058;2024-03-29T15:36:36;0.80;;;0.80;;
10041;SDS011;5061;49.068;12.058;2024-03-29T15:39:58;0.93;;;0.80;;
10041;SDS011;5061;49.068;12.058;2024-03-29T15:43:19;2.40;;;1.00;;
10041;SDS011;5061;49.068;12.058;2024-03-29T15:46:39;1.73;;;0.80;;
10041;SDS011;5061;49.068;12.058;2024-03-29T15:50:00;1.20;;;0.80;;
10041;SDS011;5061;49.068;12.058;2024-03-29T15:53:21;1.63;;;0.70;;
10041;SDS011;5061;49.068;12.058;2024-03-29T15:56:42;0.90;;;0.77;;
10041;SDS011;5061;49.068;12.058;2024-03-29T16:00:02;1.43;;;0.90;;
10041;SDS011;5061;49.068;12.058;2024-03-29T16:03:25;1.77;;;0.80;;
10041;SDS011;5061;49.068;12.058;2024-03-29T16:06:46;0.80;;;0.70;;
10041;SDS011;5061;49.068;12.058;2024-03-29T16:10:07;0.90;;;0.80;;
10041;SDS011;5061;49.068;12.058;2024-03-29T16:13:28;1.63;;;0.90;;
10041;SDS011;5061;49.068;12.058;2024-03-29T16:16:49;1.10;;;1.00;;
10041;SDS011;5061;49.068;12.058;2024-03-29T16:20:10;0.80;;;0.80;;
10041;SDS011;5061;49.068;12.058;2024-03-29T16:23:31;0.90;;;0.80;;
10041;SDS011;5061;49.068;12.058;2024-03-29T16:26:53;1.20;;;0.90;;
10041;SDS011;5061;49.068;12.058;2024-03-29T16:30:14;2.93;;;0.80;;
10041;SDS011;5061;49.068;12.058;2024-03-29T16:33:36;0.80;;;0.70;;
10041;SDS011;5061;49.068;12.058;2024-03-29T16:36:58;2.17;;;1.27;;
10041;SDS011;5061;49.068;12.058;2024-03-29T16:40:19;1.00;;;0.90;;
10041;SDS011;5061;49.068;12.058;2024-03-29T16:43:40;1.23;;;0.93;;
10041;SDS011;5061;49.068;12.058;2024-03-29T16:47:00;0.80;;;0.80;;
10041;SDS011;5061;49.068;12.058;2024-03-29T16:50:21;1.03;;;0.90;;
10041;SDS011;5061;49.068;12.058;2024-03-29T16:53:44;0.90;;;0.80;;
10041;SDS011;5061;49.068;12.058;2024-03-29T16:57:05;2.40;;;1.13;;
10041;SDS011;5061;49.068;12.058;2024-03-29T17:00:35;0.80;;;0.73;;
10041;SDS011;5061;49.068;12.058;2024-03-29T17:03:59;0.80;;;0.80;;
10041;SDS011;5061;49.068;12.058;2024-03-29T17:07:23;1.00;;;0.90;;
10041;SDS011;5061;49.068;12.058;2024-03-29T17:10:43;1.20;;;1.00;;
10041;SDS011;5061;49.068;12.058;2024-03-29T17:14:04;1.00;;;0.80;;
10041;SDS011;5061;49.068;12.058;2024-03-29T17:17:25;1.00;;;0.90;;
10041;SDS011;5061;49.068;12.058;2024-03-29T17:20:48;1.03;;;0.87;;
10041;SDS011;5061;49.068;12.058;2024-03-29T17:24:09;3.93;;;1.40;;
10041;SDS011;5061;49.068;12.058;2024-03-29T17:27:34;1.40;;;1.10;;
10041;SDS011;5061;49.068;12.058;2024-03-29T17:30:56;1.10;;;1.00;;
10041;SDS011;5061;49.068;12.058;2024-03-29T17:34:17;1.80;;;1.07;;
10041;SDS011;5061;49.068;12.058;2024-03-29T17:37:38;1.47;;;1.20;;
10041;SDS011;5061;49.068;12.058;2024-03-29T17:40:58;1.23;;;1.13;;
10041;SDS011;5061;49.068;12.058;2024-03-29T17:44:27;1.10;;;1.00;;
10041;SDS011;5061;49.068;12.058;2024-03-29T17:47:51;1.60;;;1.33;;
10041;SDS011;5061;49.068;12.058;2024-03-29T17:51:14;1.70;;;1.20;;
10041;SDS011;5061;49.068;12.058;2024-03-29T17:54:41;1.00;;;0.90;;
10041;SDS011;5061;49.068;12.058;2024-03-29T17:58:01;0.93;;;0.83;;
10041;SDS011;5061;49.068;12.058;2024-03-29T18:01:23;1.00;;;0.90;;
10041;SDS011;5061;49.068;12.058;2024-03-29T18:04:44;1.30;;;1.10;;
10041;SDS011;5061;49.068;12.058;2024-03-29T18:08:04;1.63;;;1.30;;
10041;SDS011;5061;49.068;12.058;2024-03-29T18:11:25;3.73;;;1.33;;
10041;SDS011;5061;49.068;12.058;2024-03-29T18:14:46;1.90;;;1.53;;
10041;SDS011;5061;49.068;12.058;2024-03-29T18:18:07;2.50;;;1.37;;
10041;SDS011;5061;49.068;12.058;2024-03-29T18:21:28;2.33;;;1.40;;
10041;SDS011;5061;49.068;12.058;2024-03-29T18:24:48;1.40;;;1.30;;
10041;SDS011;5061;49.068;12.058;2024-03-29T18:28:09;1.60;;;1.50;;
10041;SDS011;5061;49.068;12.058;2024-03-29T18:31:30;2.57;;;1.37;;
10041;SDS011;5061;49.068;12.058;2024-03-29T18:34:50;2.63;;;1.50;;
10041;SDS011;5061;49.068;12.058;2024-03-29T18:38:11;2.27;;;1.93;;
10041;SDS011;5061;49.068;12.058;2024-03-29T18:41:32;2.13;;;1.80;;
10041;SDS011;5061;49.068;12.058;2024-03-29T18:44:54;3.37;;;2.00;;
10041;SDS011;5061;49.068;12.058;2024-03-29T18:48:15;2.70;;;1.90;;
10041;SDS011;5061;49.068;12.058;2024-03-29T18:51:35;2.97;;;1.87;;
10041;SDS011;5061;49.068;12.058;2024-03-29T18:54:56;1.60;;;1.50;;
10041;SDS011;5061;49.068;12.058;2024-03-29T18:58:16;1.50;;;1.30;;
10041;SDS011;5061;49.068;12.058;2024-03-29T19:01:37;1.53;;;1.40;;
10041;SDS011;5061;49.068;12.058;2024-03-29T19:04:58;2.57;;;1.50;;
10041;SDS011;5061;49.068;12.058;2024-03-29T19:08:19;1.67;;;1.57;;
10041;SDS011;5061;49.068;12.058;2024-03-29T19:11:42;2.83;;;1.50;;
10041;SDS011;5061;49.068;12.058;2024-03-29T19:15:03;1.80;;;1.43;;
10041;SDS011;5061;49.068;12.058;2024-03-29T19:18:26;2.23;;;1.40;;
10041;SDS011;5061;49.068;12.058;2024-03-29T19:21:47;3.27;;;1.43;;
10041;SDS011;5061;49.068;12.058;2024-03-29T19:25:10;1.73;;;1.37;;
10041;SDS011;5061;49.068;12.058;2024-03-29T19:28:30;5.37;;;1.67;;
10041;SDS011;5061;49.068;12.058;2024-03-29T19:31:51;1.30;;;1.20;;
10041;SDS011;5061;49.068;12.058;2024-03-29T19:35:13;1.90;;;1.50;;
10041;SDS011;5061;49.068;12.058;2024-03-29T19:38:33;3.33;;;1.60;;
10041;SDS011;5061;49.068;12.058;2024-03-29T19:41:54;1.77;;;1.37;;
10041;SDS011;5061;49.068;12.058;2024-03-29T19:45:15;1.73;;;1.40;;
10041;SDS011;5061;49.068;12.058;2024-03-29T19:48:35;2.70;;;1.93;;
10041;SDS011;5061;49.068;12.058;2024-03-29T19:51:56;2.53;;;1.70;;
10041;SDS011;5061;49.068;12.058;2024-03-29T19:55:17;1.67;;;1.40;;
10041;SDS011;5061;49.068;12.058;2024-03-29T19:58:40;1.47;;;1.37;;
10041;SDS011;5061;49.068;12.058;2024-03-29T20:02:01;4.63;;;1.40;;
10041;SDS011;5061;49.068;12.058;2024-03-29T20:05:22;4.30;;;1.53;;
10041;SDS011;5061;49.068;12.058;2024-03-29T20:08:43;2.93;;;1.40;;
10041;SDS011;5061;49.068;12.058;2024-03-29T20:12:04;2.60;;;1.77;;
10041;SDS011;5061;49.068;12.058;2024-03-29T20:15:24;6.07;;;1.57;;
10041;SDS011;5061;49.068;12.058;2024-03-29T20:18:45;3.17;;;1.33;;
10041;SDS011;5061;49.068;12.058;2024-03-29T20:22:06;1.60;;;1.40;;
10041;SDS011;5061;49.068;12.058;2024-03-29T20:25:28;3.27;;;1.73;;
10041;SDS011;5061;49.068;12.058;2024-03-29T20:28:49;1.90;;;1.50;;
10041;SDS011;5061;49.068;12.058;2024-03-29T20:32:09;3.73;;;1.67;;
10041;SDS011;5061;49.068;12.058;2024-03-29T20:35:30;2.07;;;1.63;;
10041;SDS011;5061;49.068;12.058;2024-03-29T20:38:51;3.10;;;1.50;;
10041;SDS011;5061;49.068;12.058;2024-03-29T20:42:16;4.27;;;1.83;;
10041;SDS011;5061;49.068;12.058;2024-03-29T20:45:36;3.20;;;1.70;;
10041;SDS011;5061;49.068;12.058;2024-03-29T20:48:57;4.37;;;1.87;;
10041;SDS011;5061;49.068;12.058;2024-03-29T20:52:19;8.27;;;2.07;;
10041;SDS011;5061;49.068;12.058;2024-03-29T20:55:39;2.17;;;1.43;;
10041;SDS011;5061;49.068;12.058;2024-03-29T20:59:00;6.23;;;1.90;;
10041;SDS011;5061;49.068;12.058;2024-03-29T21:02:20;3.57;;;1.77;;
10041;SDS011;5061;49.068;12.058;2024-03-29T21:05:59;3.07;;;1.77;;
10041;SDS011;5061;49.068;12.058;2024-03-29T21:09:20;3.70;;;1.83;;
10041;SDS011;5061;49.068;12.058;2024-03-29T21:12:41;3.27;;;1.83;;
10041;SDS011;5061;49.068;12.058;2024-03-29T21:16:01;6.47;;;2.73;;
10041;SDS011;5061;49.068;12.058;2024-03-29T21:19:22;3.20;;;1.80;;
10041;SDS011;5061;49.068;12.058;2024-03-29T21:22:43;6.60;;;2.00;;
10041;SDS011;5061;49.068;12.058;2024-03-29T21:26:05;3.67;;;2.30;;
10041;SDS011;5061;49.068;12.058;2024-03-29T21:29:25;3.40;;;1.90;;
10041;SDS011;5061;49.068;12.058;2024-03-29T21:32:46;7.37;;;2.60;;
10041;SDS011;5061;49.068;12.058;2024-03-29T21:36:07;10.87;;;2.90;;
10041;SDS011;5061;49.068;12.058;2024-03-29T21:39:27;9.20;;;2.67;;
10041;SDS011;5061;49.068;12.058;2024-03-29T21:42:48;18.53;;;2.60;;
10041;SDS011;5061;49.068;12.058;2024-03-29T21:46:09;6.23;;;2.27;;
10041;SDS011;5061;49.068;12.058;2024-03-29T21:49:29;15.03;;;2.90;;
10041;SDS011;5061;49.068;12.058;2024-03-29T21:52:50;9.70;;;2.93;;
10041;SDS011;5061;49.068;12.058;2024-03-29T21:56:11;10.47;;;2.80;;
10041;SDS011;5061;49.068;12.058;2024-03-29T21:59:32;7.30;;;2.70;;
10041;SDS011;5061;49.068;12.058;2024-03-29T22:02:52;10.37;;;2.60;;
10041;SDS011;5061;49.068;12.058;2024-03-29T22:06:13;12.20;;;2.90;;
10041;SDS011;5061;49.068;12.058;2024-03-29T22:09:34;12.10;;;3.43;;
10041;SDS011;5061;49.068;12.058;2024-03-29T22:12:54;18.67;;;3.63;;